createdAt,value
2022-08-31T00:02:51.380Z,97083.56
2022-08-31T00:07:44.876Z,97084.91
2022-08-31T00:12:38.191Z,97075.75
2022-08-31T00:17:32.854Z,97078.28
2022-08-31T00:22:26.152Z,97083.09
2022-08-31T00:27:19.469Z,97082.16
2022-08-31T00:32:12.799Z,97082.50
2022-08-31T00:37:07.555Z,97081.28
2022-08-31T00:42:00.977Z,97078.31
2022-08-31T00:46:54.345Z,97075.34
2022-08-31T00:51:52.872Z,97074.69
2022-08-31T00:56:48.970Z,97076.03
2022-08-31T01:01:42.719Z,97083.81
2022-08-31T01:06:37.261Z,97078.50
2022-08-31T01:11:31.019Z,97076.69
2022-08-31T01:16:31.338Z,97083.00
2022-08-31T01:21:37.403Z,97072.72
2022-08-31T01:26:34.049Z,97075.56
2022-08-31T01:31:31.402Z,97079.72
2022-08-31T01:36:26.367Z,97067.44
2022-08-31T01:41:19.778Z,97071.97
2022-08-31T01:46:15.327Z,97065.78
2022-08-31T01:51:09.494Z,97082.41
2022-08-31T01:56:12.446Z,97090.16
2022-08-31T02:01:31.205Z,97098.66
2022-08-31T02:06:21.060Z,97085.66
2022-08-31T02:11:14.499Z,97087.25
2022-08-31T02:16:08.288Z,97086.91
2022-08-31T02:21:01.658Z,97086.41
2022-08-31T02:25:56.366Z,97088.22
2022-08-31T02:30:49.936Z,97099.47
2022-08-31T02:35:43.904Z,97102.16
2022-08-31T02:40:38.941Z,97102.31
2022-08-31T02:45:36.024Z,97108.97
2022-08-31T02:50:29.747Z,97107.69
2022-08-31T02:55:25.035Z,97110.97
2022-08-31T03:00:19.695Z,97117.47
2022-08-31T03:05:14.455Z,97119.47
2022-08-31T03:10:11.485Z,97126.97
2022-08-31T03:15:07.722Z,97134.75
2022-08-31T03:20:04.822Z,97129.47
2022-08-31T03:24:59.930Z,97135.41
2022-08-31T03:29:53.490Z,97128.25
2022-08-31T03:34:47.152Z,97141.84
2022-08-31T03:39:40.675Z,97144.72
2022-08-31T03:44:35.891Z,97162.78
2022-08-31T03:49:29.202Z,97156.75
2022-08-31T03:54:22.499Z,97145.09
2022-08-31T03:59:15.837Z,97126.00
2022-08-31T04:04:14.586Z,97126.41
2022-08-31T04:09:08.053Z,97118.06
2022-08-31T04:14:01.619Z,97117.84
2022-08-31T04:18:54.929Z,97129.06
2022-08-31T04:23:51.343Z,97135.28
2022-08-31T04:28:44.646Z,97135.84
2022-08-31T04:33:38.712Z,97137.97
2022-08-31T04:38:33.030Z,97124.50
2022-08-31T04:43:28.942Z,97124.88
2022-08-31T04:48:22.280Z,97134.75
2022-08-31T04:53:15.681Z,97148.28
2022-08-31T04:58:09.046Z,97160.53
2022-08-31T05:03:03.765Z,97168.03
2022-08-31T05:07:57.089Z,97167.88
2022-08-31T05:12:52.073Z,97177.75
2022-08-31T05:17:45.371Z,97171.72
2022-08-31T05:22:40.121Z,97176.81
2022-08-31T05:27:33.455Z,97168.53
2022-08-31T05:32:26.747Z,97172.19
2022-08-31T05:37:20.340Z,97172.34
2022-08-31T05:42:19.919Z,97175.00
2022-08-31T05:47:13.192Z,97172.72
2022-08-31T05:52:06.765Z,97188.94
2022-08-31T05:57:01.514Z,97177.94
2022-08-31T06:01:56.592Z,97179.56
2022-08-31T06:06:49.934Z,97170.44
2022-08-31T06:11:43.222Z,97170.69
2022-08-31T06:16:37.805Z,97174.53
2022-08-31T06:21:35.401Z,97183.88
2022-08-31T06:26:32.454Z,97179.94
2022-08-31T06:31:31.130Z,97184.50
2022-08-31T06:36:27.236Z,97167.13
2022-08-31T06:41:27.469Z,97170.09
2022-08-31T06:46:24.174Z,97193.41
2022-08-31T06:51:18.631Z,97189.91
2022-08-31T06:56:20.490Z,97189.75
2022-08-31T07:01:32.634Z,97191.59
2022-08-31T07:06:33.182Z,97205.69
2022-08-31T07:11:32.383Z,97209.91
2022-08-31T07:16:29.140Z,97208.03
2022-08-31T07:21:25.605Z,97212.91
2022-08-31T07:26:25.587Z,97213.72
2022-08-31T07:31:20.182Z,97216.28
2022-08-31T07:36:17.073Z,97212.44
2022-08-31T07:41:28.739Z,97219.56
2022-08-31T07:46:22.087Z,97207.59
2022-08-31T07:51:23.560Z,97210.06
2022-08-31T07:56:18.899Z,97212.91
2022-08-31T08:01:13.259Z,97217.38
2022-08-31T08:06:12.875Z,97206.72
2022-08-31T08:11:07.819Z,97188.03
2022-08-31T08:16:02.201Z,97189.38
2022-08-31T08:20:56.837Z,97198.03
2022-08-31T08:25:51.520Z,97206.75
2022-08-31T08:30:47.754Z,97214.31
2022-08-31T08:35:41.623Z,97206.28
2022-08-31T08:40:42.404Z,97216.09
2022-08-31T08:45:37.031Z,97214.34
2022-08-31T08:50:32.891Z,97206.66
2022-08-31T08:55:36.890Z,97226.38
2022-08-31T09:00:30.318Z,97225.81
2022-08-31T09:05:55.111Z,97244.34
2022-08-31T09:11:07.601Z,97247.06
2022-08-31T09:16:20.646Z,97246.22
2022-08-31T09:21:23.629Z,97238.06
2022-08-31T09:26:21.108Z,97241.56
2022-08-31T09:31:34.648Z,97260.41
2022-08-31T09:36:41.307Z,97252.13
2022-08-31T09:41:37.492Z,97248.50
2022-08-31T09:46:31.752Z,97271.28
2022-08-31T09:51:29.866Z,97272.63
2022-08-31T09:56:26.515Z,97276.72
2022-08-31T10:01:33.265Z,97273.09
2022-08-31T10:06:41.736Z,97268.84
2022-08-31T10:11:39.389Z,97275.63
2022-08-31T10:16:42.660Z,97275.53
2022-08-31T10:21:52.301Z,97285.41
2022-08-31T10:26:56.237Z,97290.84
2022-08-31T10:31:56.248Z,97298.03
2022-08-31T10:36:59.997Z,97303.53
2022-08-31T10:41:54.776Z,97296.66
2022-08-31T10:46:50.380Z,97285.97
2022-08-31T10:52:00.175Z,97280.69
2022-08-31T10:57:09.971Z,97283.00
2022-08-31T11:02:45.587Z,97269.47
2022-08-31T11:07:52.112Z,97265.19
2022-08-31T11:12:55.119Z,97283.91
2022-08-31T11:18:46.133Z,97286.34
2022-08-31T11:24:14.198Z,97275.06
2022-08-31T11:29:24.963Z,97270.22
2022-08-31T11:34:29.546Z,97266.25
2022-08-31T11:39:43.064Z,97273.75
2022-08-31T11:45:06.704Z,97273.59
2022-08-31T11:50:02.477Z,97261.88
2022-08-31T11:55:21.026Z,97266.84
2022-08-31T12:00:21.946Z,97269.69
2022-08-31T12:05:57.948Z,97262.75
2022-08-31T12:11:03.899Z,97261.59
2022-08-31T12:16:37.782Z,97273.44
2022-08-31T12:22:04.741Z,97269.63
2022-08-31T12:27:21.296Z,97254.00
2022-08-31T12:32:33.453Z,97262.50
2022-08-31T12:37:30.655Z,97262.34
2022-08-31T12:42:26.904Z,97254.69
2022-08-31T12:47:35.482Z,97264.19
2022-08-31T12:52:56.596Z,97256.69
2022-08-31T12:58:07.092Z,97257.34
2022-08-31T13:03:16.621Z,97257.69
2022-08-31T13:08:22.552Z,97260.03
2022-08-31T13:13:24.690Z,97266.81
2022-08-31T13:18:27.194Z,97257.19
2022-08-31T13:23:30.692Z,97245.88
2022-08-31T13:28:30.428Z,97239.53
2022-08-31T13:33:31.087Z,97236.22
2022-08-31T13:38:42.178Z,97224.25
2022-08-31T13:43:37.603Z,97229.72
2022-08-31T13:48:38.081Z,97232.41
2022-08-31T13:53:42.058Z,97223.25
2022-08-31T13:58:37.834Z,97221.72
2022-08-31T14:03:46.740Z,97220.56
2022-08-31T14:08:40.127Z,97226.69
2022-08-31T14:13:34.722Z,97226.34
2022-08-31T14:18:31.830Z,97235.03
2022-08-31T14:28:44.078Z,97234.03
2022-08-31T14:33:37.569Z,97227.91
2022-08-31T14:38:30.859Z,97229.88
2022-08-31T14:43:25.287Z,97218.75
2022-08-31T14:48:20.266Z,97216.59
2022-08-31T14:53:13.780Z,97215.78
2022-08-31T14:58:13.127Z,97211.94
2022-08-31T15:03:06.629Z,97202.78
2022-08-31T15:08:01.297Z,97206.75
2022-08-31T15:12:55.775Z,97215.09
2022-08-31T15:17:51.527Z,97206.44
2022-08-31T15:22:45.235Z,97204.78
2022-08-31T15:27:44.057Z,97204.78
2022-08-31T15:32:45.224Z,97202.97
2022-08-31T15:37:39.074Z,97199.13
2022-08-31T15:42:34.127Z,97201.28
2022-08-31T15:47:50.631Z,97186.00
2022-08-31T15:52:49.710Z,97184.84
2022-08-31T15:57:45.484Z,97177.03
2022-08-31T16:02:40.394Z,97177.84
2022-08-31T16:07:34.769Z,97170.03
2022-08-31T16:12:28.497Z,97159.38
2022-08-31T16:17:22.442Z,97155.91
2022-08-31T16:22:18.454Z,97156.53
2022-08-31T16:27:16.627Z,97158.88
2022-08-31T16:32:10.393Z,97158.38
2022-08-31T16:37:07.357Z,97160.03
2022-08-31T16:42:02.059Z,97161.88
2022-08-31T16:46:55.394Z,97156.22
2022-08-31T16:51:50.576Z,97154.56
2022-08-31T16:56:50.501Z,97139.09
2022-08-31T17:01:47.965Z,97149.38
2022-08-31T17:06:46.710Z,97147.38
2022-08-31T17:11:44.987Z,97145.56
2022-08-31T17:16:40.908Z,97142.22
2022-08-31T17:21:35.980Z,97138.56
2022-08-31T17:26:35.507Z,97143.53
2022-08-31T17:31:30.051Z,97133.25
2022-08-31T17:36:25.297Z,97129.69
2022-08-31T17:41:19.957Z,97129.91
2022-08-31T17:46:15.823Z,97144.16
2022-08-31T17:51:26.417Z,97149.03
2022-08-31T17:56:25.042Z,97158.16
2022-08-31T18:01:27.429Z,97156.88
2022-08-31T18:06:21.056Z,97172.97
2022-08-31T18:11:16.362Z,97175.50
2022-08-31T18:16:14.011Z,97182.78
2022-08-31T18:21:08.889Z,97189.06
2022-08-31T18:26:02.358Z,97199.31
2022-08-31T18:30:56.906Z,97204.75
2022-08-31T18:35:52.806Z,97209.75
2022-08-31T18:41:03.580Z,97211.22
2022-08-31T18:45:56.984Z,97202.19
2022-08-31T18:50:52.129Z,97210.97
2022-08-31T18:55:45.936Z,97216.97
2022-08-31T19:00:40.380Z,97202.19
2022-08-31T19:05:34.593Z,97215.84
2022-08-31T19:10:29.637Z,97223.53
2022-08-31T19:15:25.505Z,97227.63
2022-08-31T19:20:30.443Z,97219.91
2022-08-31T19:25:24.693Z,97207.69
2022-08-31T19:30:28.279Z,97213.84
2022-08-31T19:35:22.401Z,97207.22
2022-08-31T19:40:17.935Z,97211.66
2022-08-31T19:45:24.581Z,97211.91
2022-08-31T19:50:19.903Z,97213.50
2022-08-31T19:55:13.840Z,97205.38
2022-08-31T20:00:10.152Z,97201.72
2022-08-31T20:05:07.274Z,97199.41
2022-08-31T20:10:02.347Z,97193.94
2022-08-31T20:14:55.674Z,97191.81
2022-08-31T20:19:49.439Z,97188.56
2022-08-31T20:24:45.132Z,97188.78
2022-08-31T20:29:40.090Z,97194.25
2022-08-31T20:34:33.425Z,97186.50
2022-08-31T20:39:31.414Z,97182.09
2022-08-31T20:44:29.512Z,97191.75
2022-08-31T20:49:24.919Z,97197.66
2022-08-31T20:54:18.848Z,97181.16
2022-08-31T20:59:12.236Z,97187.00
2022-08-31T21:04:09.477Z,97192.97
2022-08-31T21:09:05.975Z,97178.19
2022-08-31T21:14:00.111Z,97187.13
2022-08-31T21:18:53.553Z,97190.53
2022-08-31T21:23:48.038Z,97193.91
2022-08-31T21:28:43.788Z,97192.59
2022-08-31T21:33:37.396Z,97185.69
2022-08-31T21:38:32.115Z,97169.03
2022-08-31T21:43:25.541Z,97186.94
2022-08-31T21:48:26.461Z,97195.13
2022-08-31T21:53:19.992Z,97198.75
2022-08-31T21:58:13.701Z,97194.63
2022-08-31T22:03:07.952Z,97194.63
2022-08-31T22:08:02.917Z,97203.56
2022-08-31T22:12:56.309Z,97194.50
2022-08-31T22:18:09.590Z,97195.16
2022-08-31T22:23:05.672Z,97196.75
2022-08-31T22:28:06.031Z,97192.97
2022-08-31T22:32:59.708Z,97182.41
2022-08-31T22:37:53.054Z,97182.16
2022-08-31T22:42:50.581Z,97177.44
2022-08-31T22:47:49.876Z,97183.75
2022-08-31T22:52:43.687Z,97187.38
2022-08-31T22:57:38.557Z,97186.16
2022-08-31T23:02:33.352Z,97187.66
2022-08-31T23:07:26.705Z,97177.72
2022-08-31T23:12:20.053Z,97179.03
2022-08-31T23:17:13.840Z,97168.25
2022-08-31T23:22:12.347Z,97167.81
2022-08-31T23:27:10.644Z,97163.50
2022-08-31T23:32:04.745Z,97160.16
2022-08-31T23:36:58.092Z,97152.66
2022-08-31T23:41:53.980Z,97151.03
2022-08-31T23:46:49.261Z,97138.75
2022-08-31T23:51:43.285Z,97144.00
2022-08-31T23:56:40.852Z,97139.81
